Time;durP1;ratioP1;P1;durP2;ratioP2;P2;SDS_P1;SDS_P2;PMS_P1;PMS_P2;Temp;Humidity;BMP_temperature;BMP_pressure;BME280_temperature;BME280_humidity;BME280_pressure;Samples;Min_cycle;Max_cycle;Signal;HPM_P1;HPM_P2
2022/07/19 00:02:23;;;;;;;17.05;6.35;;;22.80;93.00;;;;;;4973057;28;20019;-67
2022/07/19 00:04:49;;;;;;;13.57;5.97;;;22.70;93.40;;;;;;4972913;28;20026;-70
2022/07/19 00:07:14;;;;;;;16.90;7.65;;;22.60;94.00;;;;;;4973755;28;20066;-70
2022/07/19 00:09:40;;;;;;;15.10;6.65;;;22.60;94.40;;;;;;4972282;28;20397;-65
2022/07/19 00:12:06;;;;;;;11.90;6.07;;;22.60;94.80;;;;;;4972213;28;20109;-66
2022/07/19 00:14:31;;;;;;;12.35;6.20;;;22.50;95.00;;;;;;4973429;28;20026;-67
2022/07/19 00:16:57;;;;;;;13.07;6.72;;;22.60;95.10;;;;;;4973476;28;20062;-67
2022/07/19 00:19:23;;;;;;;12.00;6.10;;;22.50;95.10;;;;;;4973537;28;20033;-67
2022/07/19 00:21:48;;;;;;;13.63;5.95;;;22.50;95.10;;;;;;4973449;28;20029;-68
2022/07/19 00:24:14;;;;;;;13.07;6.05;;;22.50;95.10;;;;;;4971284;28;20026;-66
2022/07/19 00:26:40;;;;;;;21.35;7.32;;;22.50;95.10;;;;;;4973121;28;20438;-67
2022/07/19 00:29:05;;;;;;;10.82;6.10;;;22.40;95.10;;;;;;4973484;28;20029;-67
2022/07/19 00:31:31;;;;;;;14.55;6.63;;;22.40;95.20;;;;;;4973455;28;20027;-67
2022/07/19 00:33:57;;;;;;;13.15;6.35;;;22.40;95.20;;;;;;4973492;28;20142;-67
2022/07/19 00:36:22;;;;;;;14.40;6.72;;;22.40;95.40;;;;;;4973222;28;20073;-65
2022/07/19 00:38:48;;;;;;;14.07;7.15;;;22.30;95.60;;;;;;4973467;28;20034;-67
2022/07/19 00:41:14;;;;;;;16.55;7.30;;;22.30;95.80;;;;;;4973108;28;20113;-70
2022/07/19 00:43:41;;;;;;;18.20;8.68;;;22.20;95.90;;;;;;4973234;28;20416;-69
2022/07/19 00:46:17;;;;;;;14.52;6.57;;;22.30;96.00;;;;;;4973106;28;20046;-67
2022/07/19 00:51:59;;;;;;;17.70;7.50;;;22.30;95.80;;;;;;4972821;28;20038;-67
2022/07/19 00:54:46;;;;;;;15.32;6.30;;;22.30;95.80;;;;;;4972205;28;20392;-66
2022/07/19 00:57:39;;;;;;;11.85;5.53;;;22.30;95.80;;;;;;4973281;28;20097;-67
2022/07/19 01:00:08;;;;;;;10.65;5.30;;;22.30;95.60;;;;;;4971517;28;20046;-68
2022/07/19 01:02:34;;;;;;;18.65;5.65;;;22.30;95.30;;;;;;4973085;28;20018;-67
2022/07/19 01:05:00;;;;;;;11.43;5.22;;;22.30;95.20;;;;;;4973111;28;20027;-68
2022/07/19 01:07:26;;;;;;;17.15;7.47;;;22.30;95.00;;;;;;4972838;28;20027;-66
2022/07/19 01:09:52;;;;;;;13.65;5.88;;;22.30;94.90;;;;;;4973118;28;20038;-67
2022/07/19 01:12:22;;;;;;;12.93;5.75;;;22.30;94.90;;;;;;4972834;28;20026;-68
2022/07/19 01:14:49;;;;;;;15.35;5.95;;;22.30;95.00;;;;;;4973181;28;20116;-66
2022/07/19 01:17:14;;;;;;;14.80;6.22;;;22.30;95.00;;;;;;4973059;28;20385;-68
2022/07/19 01:19:42;;;;;;;16.08;5.88;;;22.30;94.90;;;;;;4972931;28;20023;-68
2022/07/19 01:22:08;;;;;;;17.20;6.35;;;22.30;94.80;;;;;;4972611;28;20023;-67
2022/07/19 01:24:34;;;;;;;15.23;6.80;;;22.40;94.70;;;;;;4972664;28;20154;-67
2022/07/19 01:26:59;;;;;;;16.33;5.93;;;22.40;94.50;;;;;;4972579;28;20041;-66
2022/07/19 01:29:25;;;;;;;14.05;6.10;;;22.40;94.30;;;;;;4973013;28;20031;-66
2022/07/19 01:31:51;;;;;;;14.90;6.00;;;22.40;94.30;;;;;;4972645;28;20038;-66
2022/07/19 01:34:16;;;;;;;16.30;6.43;;;22.40;94.20;;;;;;4972836;28;20023;-65
2022/07/19 01:36:42;;;;;;;18.65;6.72;;;22.40;94.10;;;;;;4973390;28;20038;-66
2022/07/19 01:39:07;;;;;;;15.68;6.15;;;22.40;94.10;;;;;;4974991;28;20097;-67
2022/07/19 01:41:33;;;;;;;18.75;6.00;;;22.50;94.10;;;;;;4976425;28;20050;-70
2022/07/19 01:43:59;;;;;;;18.33;7.05;;;22.50;94.00;;;;;;4976530;28;20054;-67
2022/07/19 01:46:24;;;;;;;15.25;6.28;;;22.50;94.00;;;;;;4975687;28;20047;-70
2022/07/19 01:48:50;;;;;;;15.90;6.20;;;22.50;94.00;;;;;;4974886;28;20081;-66
2022/07/19 01:51:15;;;;;;;12.95;5.53;;;22.40;94.20;;;;;;4976312;28;20027;-71
2022/07/19 01:53:41;;;;;;;12.35;5.22;;;22.40;94.20;;;;;;4974820;28;20019;-66
2022/07/19 01:56:06;;;;;;;13.95;5.80;;;22.40;94.20;;;;;;4975842;28;20034;-66
2022/07/19 01:58:32;;;;;;;12.38;5.75;;;22.40;94.30;;;;;;4976168;28;20115;-67
2022/07/19 02:00:58;;;;;;;11.85;5.10;;;22.40;94.30;;;;;;4975996;28;20452;-65
2022/07/19 02:03:24;;;;;;;10.07;5.20;;;22.30;94.30;;;;;;4975981;28;20050;-67
2022/07/19 02:05:49;;;;;;;11.13;5.53;;;22.30;94.50;;;;;;4976033;28;20131;-68
2022/07/19 02:08:15;;;;;;;13.32;5.75;;;22.30;94.60;;;;;;4976247;28;20033;-66
2022/07/19 02:10:40;;;;;;;11.57;5.30;;;22.30;94.70;;;;;;4975537;28;20033;-67
2022/07/19 02:13:06;;;;;;;11.50;5.63;;;22.20;94.80;;;;;;4975767;28;20065;-69
2022/07/19 02:15:33;;;;;;;11.20;5.50;;;22.10;94.80;;;;;;4975971;28;20023;-67
2022/07/19 02:17:59;;;;;;;11.13;4.95;;;22.10;94.90;;;;;;4975738;28;20019;-66
2022/07/19 02:20:24;;;;;;;11.73;5.53;;;22.10;95.00;;;;;;4975780;28;20018;-67
2022/07/19 02:22:50;;;;;;;10.93;5.53;;;22.10;95.00;;;;;;4975927;28;20046;-68
2022/07/19 02:25:16;;;;;;;8.73;5.10;;;22.10;95.10;;;;;;4974125;28;20030;-68
2022/07/19 02:27:42;;;;;;;9.63;5.03;;;22.10;95.10;;;;;;4975793;28;20035;-67
2022/07/19 02:30:08;;;;;;;12.90;5.75;;;22.00;95.20;;;;;;4975568;28;20063;-66
2022/07/19 02:32:34;;;;;;;9.30;5.30;;;22.00;95.20;;;;;;4975392;28;20040;-66
2022/07/19 02:34:59;;;;;;;12.45;5.70;;;21.90;95.30;;;;;;4975361;28;20023;-66
2022/07/19 02:37:25;;;;;;;9.73;5.13;;;21.90;95.40;;;;;;4975476;28;20425;-67
2022/07/19 02:39:50;;;;;;;12.20;5.60;;;21.90;95.50;;;;;;4975321;28;20046;-69
2022/07/19 02:42:16;;;;;;;10.55;4.93;;;21.90;95.50;;;;;;4975022;28;20077;-67
2022/07/19 02:44:42;;;;;;;10.73;4.63;;;21.80;95.60;;;;;;4975039;28;20051;-67
2022/07/19 02:47:08;;;;;;;12.52;5.30;;;21.80;95.60;;;;;;4974802;28;20053;-67
2022/07/19 02:49:33;;;;;;;11.10;4.88;;;21.80;95.50;;;;;;4974440;28;20416;-67
2022/07/19 02:51:59;;;;;;;12.02;4.53;;;21.80;95.50;;;;;;4979335;28;20033;-68
2022/07/19 02:54:24;;;;;;;8.30;4.20;;;21.70;95.40;;;;;;4976051;28;20754;-70
2022/07/19 02:56:50;;;;;;;11.15;4.50;;;21.70;95.30;;;;;;4974889;28;20057;-67
2022/07/19 02:59:15;;;;;;;8.70;4.75;;;21.70;95.10;;;;;;4975054;28;20054;-68
2022/07/19 03:01:41;;;;;;;11.98;4.20;;;21.70;95.10;;;;;;4974952;28;20054;-66
2022/07/19 03:04:06;;;;;;;9.35;4.45;;;21.70;95.10;;;;;;4974936;28;20030;-68
2022/07/19 03:06:32;;;;;;;10.65;4.45;;;21.70;95.20;;;;;;4974959;28;20035;-67
2022/07/19 03:08:58;;;;;;;6.97;3.75;;;21.70;95.10;;;;;;4974793;28;20027;-68
2022/07/19 03:11:23;;;;;;;12.05;4.45;;;21.70;95.10;;;;;;4974822;28;20369;-67
2022/07/19 03:13:49;;;;;;;12.10;5.13;;;21.70;95.10;;;;;;4973484;28;20034;-67
2022/07/19 03:16:15;;;;;;;8.95;4.35;;;21.70;95.10;;;;;;4974874;28;20027;-68
2022/07/19 03:18:40;;;;;;;10.93;4.43;;;21.60;95.00;;;;;;4974569;28;20103;-67
2022/07/19 03:21:06;;;;;;;11.30;4.50;;;21.70;94.90;;;;;;4975010;28;20454;-68
2022/07/19 03:23:33;;;;;;;7.47;4.20;;;21.60;94.90;;;;;;4973542;28;20022;-69
2022/07/19 03:25:59;;;;;;;9.27;4.63;;;21.60;94.90;;;;;;4973852;28;20509;-66
2022/07/19 03:28:25;;;;;;;10.32;4.60;;;21.60;95.00;;;;;;4974154;28;20110;-66
2022/07/19 03:30:50;;;;;;;9.57;4.47;;;21.60;94.90;;;;;;4974518;28;20127;-66
2022/07/19 03:33:17;;;;;;;11.20;4.65;;;21.60;94.90;;;;;;4974537;28;20134;-68
2022/07/19 03:35:43;;;;;;;9.13;4.57;;;21.60;94.90;;;;;;4974512;28;20470;-66
2022/07/19 03:38:10;;;;;;;13.25;5.03;;;21.60;95.00;;;;;;4973962;28;20445;-68
2022/07/19 03:40:36;;;;;;;12.68;5.07;;;21.60;95.00;;;;;;4972854;28;20026;-68
2022/07/19 03:43:01;;;;;;;9.90;5.03;;;21.60;95.00;;;;;;4974387;28;20332;-68
2022/07/19 03:45:27;;;;;;;13.57;4.88;;;21.60;95.00;;;;;;4973824;28;20046;-67
2022/07/19 03:47:52;;;;;;;10.25;5.95;;;21.60;95.10;;;;;;4974234;28;20041;-67
2022/07/19 03:50:18;;;;;;;9.55;4.22;;;21.60;95.20;;;;;;4974296;28;20034;-67
2022/07/19 03:52:44;;;;;;;8.75;4.63;;;21.50;95.30;;;;;;4973432;28;20023;-66
2022/07/19 03:55:09;;;;;;;10.95;5.18;;;21.50;95.40;;;;;;4973825;28;20360;-68
2022/07/19 03:57:35;;;;;;;11.52;5.18;;;21.40;95.50;;;;;;4973878;28;20337;-68
2022/07/19 04:00:00;;;;;;;9.80;4.55;;;21.40;95.70;;;;;;4972717;28;20050;-69
2022/07/19 04:02:26;;;;;;;9.93;4.90;;;21.40;95.90;;;;;;4973678;28;20022;-66
2022/07/19 04:04:52;;;;;;;8.68;4.70;;;21.40;96.00;;;;;;4973881;28;20026;-67
2022/07/19 04:07:17;;;;;;;9.88;4.93;;;21.40;96.20;;;;;;4973597;28;20049;-68
2022/07/19 04:09:43;;;;;;;11.85;4.65;;;21.30;96.20;;;;;;4973637;28;20041;-69
2022/07/19 04:12:09;;;;;;;8.80;4.57;;;21.40;96.30;;;;;;4973472;28;20105;-67
2022/07/19 04:14:34;;;;;;;9.38;4.50;;;21.40;96.30;;;;;;4973679;28;20034;-67
2022/07/19 04:17:00;;;;;;;9.07;5.13;;;21.40;96.20;;;;;;4973565;28;20022;-66
2022/07/19 04:19:25;;;;;;;9.20;4.47;;;21.50;96.20;;;;;;4973383;28;20102;-66
2022/07/19 04:21:51;;;;;;;10.95;4.60;;;21.40;96.10;;;;;;4971495;28;20041;-67
2022/07/19 04:24:16;;;;;;;10.57;4.78;;;21.50;96.10;;;;;;4973286;28;20027;-67
2022/07/19 04:26:42;;;;;;;9.52;5.70;;;21.50;96.30;;;;;;4973569;28;20042;-67
2022/07/19 04:29:07;;;;;;;10.90;5.18;;;21.60;96.00;;;;;;4973515;28;20034;-69
2022/07/19 04:31:33;;;;;;;9.63;5.20;;;21.60;95.90;;;;;;4973542;28;20022;-67
2022/07/19 04:33:58;;;;;;;11.15;4.72;;;21.70;95.90;;;;;;4973217;28;20034;-69
2022/07/19 04:39:22;;;;;;;12.85;4.93;;;21.80;95.80;;;;;;4972947;28;20027;-67
2022/07/19 04:41:59;;;;;;;11.88;5.53;;;21.80;95.60;;;;;;4973284;28;20027;-67
2022/07/19 04:44:34;;;;;;;10.23;5.10;;;21.90;95.50;;;;;;4971577;28;20030;-66
2022/07/19 04:47:21;;;;;;;12.48;5.20;;;21.90;95.40;;;;;;4972971;28;20540;-67
2022/07/19 04:50:10;;;;;;;12.48;5.00;;;22.10;95.30;;;;;;4971423;28;20441;-68
2022/07/19 04:55:42;;;;;;;11.23;4.60;;;22.20;95.20;;;;;;4972651;28;20034;-69
2022/07/19 04:58:08;;;;;;;11.18;4.70;;;22.30;95.10;;;;;;4973359;28;20058;-67
2022/07/19 05:00:33;;;;;;;14.15;5.00;;;22.40;94.90;;;;;;4972681;28;20058;-67
2022/07/19 05:02:59;;;;;;;13.82;4.70;;;22.50;94.80;;;;;;4973342;28;20034;-66
2022/07/19 05:05:24;;;;;;;15.35;4.97;;;22.50;94.60;;;;;;4973450;28;20039;-66
2022/07/19 05:07:50;;;;;;;14.27;4.78;;;22.60;94.50;;;;;;4973196;28;20127;-67
2022/07/19 05:10:16;;;;;;;13.30;4.75;;;22.70;94.40;;;;;;4973538;28;20031;-66
2022/07/19 05:12:41;;;;;;;9.27;4.90;;;22.80;94.30;;;;;;4977100;28;20019;-67
2022/07/19 05:15:08;;;;;;;12.65;4.28;;;22.90;94.20;;;;;;4977036;28;20019;-68
2022/07/19 05:17:34;;;;;;;13.63;4.93;;;23.00;94.00;;;;;;4982284;28;20457;-67
2022/07/19 05:20:01;;;;;;;11.02;4.63;;;23.10;93.70;;;;;;4976518;28;20446;-68
2022/07/19 05:22:29;;;;;;;12.50;4.43;;;23.30;93.60;;;;;;4976143;28;20025;-69
2022/07/19 05:24:56;;;;;;;16.75;4.65;;;23.40;93.50;;;;;;4975414;28;20540;-68
2022/07/19 05:27:22;;;;;;;11.25;5.50;;;23.50;93.40;;;;;;4976596;28;20488;-66
2022/07/19 05:29:49;;;;;;;17.65;5.00;;;23.70;93.30;;;;;;4976322;28;20023;-67
2022/07/19 05:32:14;;;;;;;15.90;4.93;;;23.80;93.10;;;;;;4976336;28;20034;-67
2022/07/19 05:34:40;;;;;;;20.60;5.10;;;23.90;92.90;;;;;;4976304;28;20018;-69
2022/07/19 05:37:06;;;;;;;14.45;4.80;;;24.10;92.70;;;;;;4976555;28;20117;-67
2022/07/19 05:39:31;;;;;;;15.77;4.47;;;24.30;92.40;;;;;;4973663;28;20067;-66
2022/07/19 05:41:57;;;;;;;12.45;4.80;;;24.40;92.00;;;;;;4976400;28;20054;-67
2022/07/19 05:44:23;;;;;;;13.95;4.18;;;24.60;91.60;;;;;;4976567;28;20026;-66
2022/07/19 05:46:48;;;;;;;12.68;4.07;;;24.80;91.20;;;;;;4976034;28;20043;-67
2022/07/19 05:49:14;;;;;;;11.10;4.38;;;25.10;91.00;;;;;;4975916;28;20295;-68
2022/07/19 05:51:40;;;;;;;9.70;4.60;;;25.40;90.40;;;;;;4975897;28;20142;-67
2022/07/19 05:54:06;;;;;;;11.40;4.10;;;25.70;89.70;;;;;;4975582;28;20393;-71
2022/07/19 05:56:32;;;;;;;12.90;4.25;;;26.00;87.60;;;;;;4975892;28;20026;-68
2022/07/19 05:58:58;;;;;;;11.68;3.80;;;26.50;86.20;;;;;;4975506;28;20405;-70
2022/07/19 06:01:24;;;;;;;9.00;3.33;;;26.90;84.70;;;;;;4975880;28;20038;-68
2022/07/19 06:03:56;;;;;;;7.63;4.30;;;27.40;82.80;;;;;;4975913;28;20023;-68
2022/07/19 06:06:23;;;;;;;10.50;3.83;;;28.10;81.00;;;;;;4975421;28;20384;-67
2022/07/19 06:08:49;;;;;;;7.97;3.70;;;28.80;79.40;;;;;;4975691;28;20027;-68
2022/07/19 06:11:16;;;;;;;10.77;4.13;;;29.30;77.00;;;;;;4975044;28;20637;-68
2022/07/19 06:13:42;;;;;;;6.53;3.40;;;29.80;75.60;;;;;;4974895;28;20027;-68
2022/07/19 06:16:08;;;;;;;10.80;3.72;;;30.30;73.90;;;;;;4975928;28;20035;-69
2022/07/19 06:18:35;;;;;;;6.97;3.35;;;30.90;73.00;;;;;;4975202;28;20018;-68
2022/07/19 06:21:02;;;;;;;8.25;3.63;;;31.50;71.90;;;;;;4975506;28;20019;-67
2022/07/19 06:23:27;;;;;;;6.53;3.20;;;32.20;71.10;;;;;;4974482;28;20030;-67
2022/07/19 06:25:53;;;;;;;10.25;4.25;;;32.80;68.80;;;;;;4975411;28;20097;-68
2022/07/19 06:28:18;;;;;;;11.90;3.78;;;33.30;67.20;;;;;;4969947;28;20019;-67
2022/07/19 06:30:44;;;;;;;11.05;3.83;;;33.80;66.10;;;;;;4975139;28;20038;-67
2022/07/19 06:33:10;;;;;;;9.57;3.72;;;34.30;65.00;;;;;;4974702;28;20031;-66
2022/07/19 06:35:35;;;;;;;7.97;3.40;;;34.70;63.50;;;;;;4975576;28;20064;-69
2022/07/19 06:38:01;;;;;;;7.70;3.72;;;35.20;63.10;;;;;;4975735;28;20089;-66
2022/07/19 06:40:27;;;;;;;11.85;3.70;;;35.70;62.30;;;;;;4975752;28;20094;-69
2022/07/19 06:42:52;;;;;;;11.38;3.75;;;36.20;61.10;;;;;;4975819;28;20069;-67
2022/07/19 06:45:18;;;;;;;8.27;3.90;;;36.50;60.20;;;;;;4975435;28;20082;-70
2022/07/19 06:47:43;;;;;;;11.13;4.38;;;37.00;59.60;;;;;;4974837;28;20040;-67
2022/07/19 06:50:09;;;;;;;11.18;4.50;;;37.40;58.90;;;;;;4974390;28;20030;-67
2022/07/19 06:52:35;;;;;;;8.07;3.60;;;37.80;58.50;;;;;;4975510;28;20041;-67
2022/07/19 06:55:00;;;;;;;10.40;3.75;;;38.30;56.60;;;;;;4975099;28;20026;-67
2022/07/19 06:57:26;;;;;;;11.93;3.80;;;38.40;55.90;;;;;;4975005;28;20030;-69
2022/07/19 06:59:51;;;;;;;8.20;3.60;;;38.50;55.40;;;;;;4975018;28;20044;-67
2022/07/19 07:02:17;;;;;;;10.70;3.50;;;38.70;55.10;;;;;;4974577;28;20069;-70
2022/07/19 07:04:42;;;;;;;9.05;3.63;;;39.00;54.60;;;;;;4975006;28;20062;-66
2022/07/19 07:07:08;;;;;;;8.65;3.40;;;39.20;54.10;;;;;;4974360;28;20042;-69
2022/07/19 07:09:33;;;;;;;7.90;3.45;;;39.30;53.60;;;;;;4974140;28;20018;-67
2022/07/19 07:11:59;;;;;;;11.18;3.58;;;39.40;53.60;;;;;;4975158;28;20041;-67
2022/07/19 07:14:25;;;;;;;9.63;4.10;;;39.50;53.30;;;;;;4975177;28;20029;-67
2022/07/19 07:16:50;;;;;;;9.50;3.67;;;39.70;53.20;;;;;;4974846;28;20098;-66
2022/07/19 07:19:16;;;;;;;10.13;3.42;;;39.80;52.40;;;;;;4975351;28;20333;-67
2022/07/19 07:21:41;;;;;;;7.97;3.20;;;40.00;52.40;;;;;;4975352;28;20062;-66
2022/07/19 07:24:07;;;;;;;7.30;3.20;;;40.10;51.70;;;;;;4974550;28;20025;-69
2022/07/19 07:26:33;;;;;;;7.03;3.13;;;40.10;51.80;;;;;;4974612;28;20115;-67
2022/07/19 07:28:59;;;;;;;7.93;3.45;;;40.00;51.40;;;;;;4974771;28;20023;-67
2022/07/19 07:31:24;;;;;;;8.88;3.60;;;39.90;51.50;;;;;;4974637;28;20034;-67
2022/07/19 07:33:50;;;;;;;6.18;3.33;;;39.80;51.50;;;;;;4974885;28;20065;-67
2022/07/19 07:36:17;;;;;;;8.43;3.20;;;39.90;51.60;;;;;;4974666;28;20061;-69
2022/07/19 07:38:43;;;;;;;6.30;2.95;;;40.10;51.20;;;;;;4973279;28;20483;-67
2022/07/19 07:41:08;;;;;;;9.35;3.28;;;40.10;51.00;;;;;;4974696;28;20026;-67
2022/07/19 07:43:36;;;;;;;10.60;3.33;;;39.90;50.70;;;;;;4974255;28;20038;-67
2022/07/19 07:46:01;;;;;;;8.77;2.95;;;39.80;51.20;;;;;;4974132;28;20092;-67
2022/07/19 07:48:27;;;;;;;9.43;3.13;;;39.60;51.40;;;;;;4971437;28;20368;-68
2022/07/19 07:50:53;;;;;;;4.95;2.90;;;39.40;51.50;;;;;;4974442;28;20019;-68
2022/07/19 07:53:18;;;;;;;8.23;2.92;;;39.20;51.10;;;;;;4974048;28;20027;-69
2022/07/19 07:55:44;;;;;;;10.18;3.55;;;39.00;50.30;;;;;;4974381;28;20031;-67
2022/07/19 07:58:11;;;;;;;9.20;2.80;;;38.80;50.90;;;;;;4973068;28;20589;-67
2022/07/19 08:00:38;;;;;;;9.20;3.05;;;38.60;51.30;;;;;;4973924;28;20046;-67
2022/07/19 08:03:04;;;;;;;8.18;3.30;;;38.30;51.20;;;;;;4974132;28;20077;-70
2022/07/19 08:05:30;;;;;;;9.77;3.30;;;37.90;51.30;;;;;;4974104;28;20065;-68
2022/07/19 08:07:56;;;;;;;9.98;3.70;;;37.50;51.70;;;;;;4968761;28;20369;-68
2022/07/19 08:10:23;;;;;;;8.30;3.05;;;37.20;52.00;;;;;;4973925;28;20138;-67
2022/07/19 08:12:49;;;;;;;9.63;3.78;;;37.00;52.20;;;;;;4974192;28;20085;-69
2022/07/19 08:15:15;;;;;;;7.68;3.08;;;37.00;52.30;;;;;;4973967;28;20446;-68
2022/07/19 08:17:40;;;;;;;8.23;3.25;;;36.90;52.30;;;;;;4973673;28;20098;-70
2022/07/19 08:20:07;;;;;;;10.88;3.35;;;37.00;52.40;;;;;;4973812;28;20034;-70
2022/07/19 08:22:32;;;;;;;10.48;3.60;;;37.20;52.50;;;;;;4973869;28;20027;-68
2022/07/19 08:24:58;;;;;;;8.40;3.15;;;37.70;52.50;;;;;;4973715;28;20026;-68
2022/07/19 08:27:23;;;;;;;8.18;3.25;;;38.30;52.10;;;;;;4973965;28;20484;-68
2022/07/19 08:29:49;;;;;;;7.35;3.03;;;39.20;51.60;;;;;;4974012;28;20030;-70
2022/07/19 08:32:15;;;;;;;11.02;3.20;;;40.10;50.40;;;;;;4973784;28;20418;-68
2022/07/19 08:34:40;;;;;;;7.80;3.00;;;40.70;49.50;;;;;;4973724;28;20031;-69
2022/07/19 08:37:06;;;;;;;9.02;2.92;;;41.30;48.90;;;;;;4973225;28;20030;-70
2022/07/19 08:39:31;;;;;;;7.90;3.08;;;42.00;47.90;;;;;;4973657;28;20019;-69
2022/07/19 08:41:57;;;;;;;9.85;3.50;;;42.80;47.10;;;;;;4973922;28;20054;-68
2022/07/19 08:44:23;;;;;;;5.45;2.58;;;43.40;46.90;;;;;;4973930;28;20137;-69
2022/07/19 08:46:48;;;;;;;6.03;2.70;;;43.90;46.50;;;;;;4972957;28;20133;-70
2022/07/19 08:49:15;;;;;;;9.90;3.00;;;44.20;46.10;;;;;;4973577;28;20023;-67
2022/07/19 08:51:42;;;;;;;9.48;2.92;;;44.50;45.70;;;;;;4973739;28;20022;-69
2022/07/19 08:54:08;;;;;;;4.55;2.63;;;44.90;45.50;;;;;;4973413;28;20037;-66
2022/07/19 08:59:18;;;;;;;7.47;2.75;;;45.40;45.00;;;;;;4973516;28;20083;-67
2022/07/19 09:01:43;;;;;;;4.95;2.70;;;45.60;44.40;;;;;;4973769;28;20377;-67
2022/07/19 09:04:14;;;;;;;11.20;3.60;;;45.90;43.90;;;;;;4973363;28;20370;-68
2022/07/19 09:06:51;;;;;;;8.27;2.83;;;46.00;43.50;;;;;;4973169;28;20493;-68
2022/07/19 09:09:22;;;;;;;7.90;2.75;;;46.10;43.30;;;;;;4973403;28;20117;-69
2022/07/19 09:11:53;;;;;;;7.00;2.70;;;46.40;43.10;;;;;;4973392;28;20030;-69
2022/07/19 09:14:21;;;;;;;5.53;2.60;;;46.70;42.60;;;;;;4973781;28;20030;-68
2022/07/19 09:16:52;;;;;;;7.20;2.80;;;46.70;42.40;;;;;;4973310;28;20023;-69
2022/07/19 09:19:19;;;;;;;7.85;2.20;;;46.70;42.20;;;;;;4973347;28;20436;-67
2022/07/19 09:21:58;;;;;;;8.32;2.35;;;46.70;41.90;;;;;;4973179;28;20041;-68
2022/07/19 09:24:25;;;;;;;4.43;2.20;;;47.10;41.60;;;;;;4973105;28;20491;-66
2022/07/19 09:27:11;;;;;;;10.63;2.80;;;47.30;41.50;;;;;;4972376;28;20041;-66
2022/07/19 09:29:44;;;;;;;9.75;2.72;;;47.70;41.30;;;;;;4973133;28;20026;-68
2022/07/19 09:32:18;;;;;;;5.30;2.50;;;47.80;40.90;;;;;;4973270;28;20035;-67
2022/07/19 09:34:49;;;;;;;6.57;2.55;;;47.70;40.80;;;;;;4972936;28;20073;-70
2022/07/19 09:37:17;;;;;;;7.45;2.47;;;47.70;41.00;;;;;;4973318;28;20038;-69
2022/07/19 09:39:46;;;;;;;6.80;2.63;;;47.90;40.50;;;;;;4973167;28;20073;-67
2022/07/19 09:42:34;;;;;;;10.45;2.60;;;48.00;40.60;;;;;;4973212;28;20036;-67
2022/07/19 09:45:11;;;;;;;7.50;2.33;;;48.00;40.30;;;;;;4972773;28;20047;-68
2022/07/19 09:47:45;;;;;;;7.03;2.55;;;47.90;40.50;;;;;;4972823;28;20368;-68
2022/07/19 09:50:16;;;;;;;11.10;2.63;;;47.90;40.70;;;;;;4973249;28;20030;-68
2022/07/19 09:52:43;;;;;;;3.47;2.00;;;47.90;40.70;;;;;;4971846;28;20049;-67
2022/07/19 09:55:10;;;;;;;5.30;2.78;;;47.90;40.90;;;;;;4973261;28;20030;-67
2022/07/19 09:57:42;;;;;;;5.10;2.40;;;48.20;40.70;;;;;;4973335;28;20035;-67
2022/07/19 10:00:10;;;;;;;5.47;2.22;;;48.60;40.50;;;;;;4976501;28;20019;-68
2022/07/19 10:02:38;;;;;;;4.85;2.17;;;49.00;39.50;;;;;;4976385;28;20019;-68
2022/07/19 10:05:05;;;;;;;7.95;2.75;;;48.90;39.20;;;;;;4975851;28;20114;-68
2022/07/19 10:07:32;;;;;;;6.13;2.25;;;48.60;39.10;;;;;;4976096;28;20376;-68
2022/07/19 10:10:03;;;;;;;4.82;2.28;;;48.60;39.30;;;;;;4976176;28;20118;-66
2022/07/19 10:12:29;;;;;;;5.95;2.30;;;48.70;38.90;;;;;;4976461;28;20027;-67
2022/07/19 10:14:55;;;;;;;4.10;2.17;;;48.90;38.90;;;;;;4975935;28;20019;-66
2022/07/19 10:17:25;;;;;;;5.63;2.33;;;49.10;39.10;;;;;;4976349;28;20026;-69
2022/07/19 10:19:51;;;;;;;10.07;3.00;;;49.10;38.20;;;;;;4976417;28;20027;-67
2022/07/19 10:22:24;;;;;;;6.57;2.20;;;48.60;38.00;;;;;;4975431;28;20038;-67
2022/07/19 10:24:54;;;;;;;5.55;2.28;;;48.50;37.90;;;;;;4976316;28;20030;-67
2022/07/19 10:27:25;;;;;;;4.20;1.97;;;48.50;37.80;;;;;;4975539;28;20416;-67
2022/07/19 10:29:52;;;;;;;6.38;2.30;;;48.80;37.50;;;;;;4975933;28;20030;-67
2022/07/19 10:32:20;;;;;;;6.88;1.85;;;48.90;37.50;;;;;;4976061;28;20027;-67
2022/07/19 10:34:46;;;;;;;6.00;2.10;;;48.80;37.60;;;;;;4976009;28;20059;-68
2022/07/19 10:37:12;;;;;;;2.90;1.90;;;48.70;37.50;;;;;;4975410;28;20110;-67
2022/07/19 10:39:39;;;;;;;6.43;1.98;;;48.60;37.60;;;;;;4975935;28;20038;-67
2022/07/19 10:42:14;;;;;;;4.20;2.13;;;48.00;38.00;;;;;;4975978;28;20069;-68
2022/07/19 10:44:55;;;;;;;6.47;2.00;;;47.90;38.00;;;;;;4975415;28;20037;-67
2022/07/19 10:47:39;;;;;;;4.85;2.00;;;47.90;38.00;;;;;;4975617;28;20035;-67
2022/07/19 10:50:14;;;;;;;9.63;2.05;;;48.20;38.00;;;;;;4975712;28;20050;-67
2022/07/19 10:52:42;;;;;;;7.57;2.45;;;48.40;37.90;;;;;;4975670;28;20026;-67
2022/07/19 10:55:25;;;;;;;6.70;2.30;;;48.70;38.00;;;;;;4975623;28;20030;-67
2022/07/19 10:58:10;;;;;;;17.55;2.70;;;48.90;37.50;;;;;;4975697;28;20528;-70
2022/07/19 11:00:43;;;;;;;9.15;2.50;;;48.70;37.30;;;;;;4973009;28;20346;-67
2022/07/19 11:03:21;;;;;;;10.48;2.55;;;48.80;37.10;;;;;;4973872;28;20049;-68
2022/07/19 11:06:01;;;;;;;4.85;2.13;;;49.20;37.00;;;;;;4975281;28;20085;-70
2022/07/19 11:08:40;;;;;;;2.92;2.10;;;49.40;36.90;;;;;;4974640;28;20043;-69
2022/07/19 11:11:08;;;;;;;2.33;1.85;;;49.50;36.90;;;;;;4975131;28;20465;-68
2022/07/19 11:13:35;;;;;;;10.02;2.53;;;49.50;36.40;;;;;;4975357;28;20019;-67
2022/07/19 11:16:02;;;;;;;7.53;2.15;;;49.30;36.20;;;;;;4975511;28;20718;-68
2022/07/19 11:18:29;;;;;;;7.65;3.25;;;49.00;36.20;;;;;;4974955;28;20015;-67
2022/07/19 11:20:58;;;;;;;8.55;2.53;;;48.70;36.70;;;;;;4974903;28;20114;-67
2022/07/19 11:23:27;;;;;;;5.00;1.80;;;48.90;37.00;;;;;;4975192;28;20046;-68
2022/07/19 11:26:17;;;;;;;5.82;1.88;;;49.10;36.70;;;;;;4969464;28;20346;-68
2022/07/19 11:28:44;;;;;;;4.10;1.92;;;49.00;36.30;;;;;;4970033;28;20037;-67
2022/07/19 11:31:11;;;;;;;7.13;2.10;;;49.00;36.00;;;;;;4974242;28;20552;-68
2022/07/19 11:33:36;;;;;;;3.25;2.03;;;49.00;36.10;;;;;;4974524;28;20027;-67
2022/07/19 11:36:02;;;;;;;4.60;2.10;;;48.90;36.00;;;;;;4974354;28;20058;-67
2022/07/19 11:38:49;;;;;;;4.93;2.03;;;48.80;36.00;;;;;;4973925;28;20031;-68
2022/07/19 11:41:26;;;;;;;11.05;2.40;;;48.80;36.30;;;;;;4974911;28;20023;-70
2022/07/19 11:44:01;;;;;;;3.08;1.92;;;48.70;36.50;;;;;;4972873;28;20082;-66
2022/07/19 11:46:37;;;;;;;4.90;1.90;;;48.80;36.00;;;;;;4974445;28;20057;-68
2022/07/19 11:49:05;;;;;;;5.50;1.65;;;48.50;36.00;;;;;;4975966;28;20101;-68
2022/07/19 11:51:32;;;;;;;7.78;2.00;;;48.60;36.00;;;;;;4976390;28;20446;-66
2022/07/19 11:53:59;;;;;;;5.22;1.98;;;48.40;36.20;;;;;;4976036;28;20054;-67
2022/07/19 11:56:28;;;;;;;4.55;2.08;;;48.40;36.10;;;;;;4974127;28;20030;-69
2022/07/19 11:58:57;;;;;;;6.50;1.80;;;48.40;35.80;;;;;;4974189;28;20019;-69
2022/07/19 12:01:29;;;;;;;3.88;2.00;;;48.30;35.90;;;;;;4974284;28;20027;-67
2022/07/19 12:03:56;;;;;;;3.58;2.03;;;48.60;36.00;;;;;;4974179;28;20027;-68
2022/07/19 12:06:38;;;;;;;5.82;2.00;;;48.90;36.00;;;;;;4973873;28;20342;-67
2022/07/19 12:09:07;;;;;;;9.20;2.22;;;49.20;35.80;;;;;;4970672;28;20539;-67
2022/07/19 12:11:42;;;;;;;6.40;2.03;;;49.20;35.20;;;;;;4973798;28;20027;-67
2022/07/19 12:14:22;;;;;;;2.95;2.15;;;49.10;35.60;;;;;;4974079;28;20042;-66
2022/07/19 12:17:09;;;;;;;;;;;49.00;35.90;;;;;;4973928;28;20377;-68
2022/07/19 12:19:35;;;;;;;23.23;4.00;;;48.60;35.90;;;;;;4973548;28;19902;-66
2022/07/19 12:22:00;;;;;;;6.38;1.90;;;48.00;36.10;;;;;;4973041;28;20473;-68
2022/07/19 12:24:29;;;;;;;3.83;1.90;;;48.10;36.20;;;;;;4973731;28;20428;-70
2022/07/19 12:26:57;;;;;;;3.72;1.80;;;48.00;36.30;;;;;;4973613;28;20027;-67
2022/07/19 12:29:35;;;;;;;4.68;1.67;;;48.10;36.70;;;;;;4972076;28;20031;-66
2022/07/19 12:32:12;;;;;;;9.45;1.90;;;48.40;36.50;;;;;;4973520;28;20508;-66
2022/07/19 12:34:50;;;;;;;7.28;2.00;;;48.60;36.40;;;;;;4973836;28;20026;-67
2022/07/19 12:37:21;;;;;;;4.90;1.75;;;48.60;36.40;;;;;;4973537;28;20073;-70
2022/07/19 12:40:20;;;;;;;4.57;2.45;;;48.30;36.60;;;;;;4973795;28;20037;-67
2022/07/19 12:42:50;;;;;;;7.82;1.70;;;48.40;36.80;;;;;;4976356;28;20043;-67
2022/07/19 12:45:21;;;;;;;3.58;1.90;;;48.30;35.80;;;;;;4971873;28;20465;-68
2022/07/19 12:47:47;;;;;;;6.90;1.60;;;47.80;36.20;;;;;;4973412;28;20046;-68
2022/07/19 12:50:28;;;;;;;4.75;1.50;;;47.40;36.20;;;;;;4973407;28;20030;-67
2022/07/19 12:52:56;;;;;;;5.32;1.70;;;46.40;36.30;;;;;;4973577;28;20114;-66
2022/07/19 12:55:24;;;;;;;3.30;1.75;;;45.70;37.20;;;;;;4973514;28;20019;-70
2022/07/19 12:57:51;;;;;;;4.28;1.63;;;45.50;37.40;;;;;;4973670;28;20023;-66
2022/07/19 13:00:18;;;;;;;4.28;1.90;;;45.20;37.60;;;;;;4973241;28;20090;-69